| Date | Time | Temp. (oF) | Dew Point (oF) | Rel. Hum. (%) | Press. (in.) | Wind Dir. | Wind Speed (mph) | Hourly Rainfall (in.) |
|
|---|---|---|---|---|---|---|---|---|---|
| 1 | 06/07 | 00:00 | 73 | 57 | 59 | 29.57 | S | 5 | 0.00 |
| 2 | 06/06 | 23:00 | 74 | 57 | 57 | 29.58 | SSW | 5 | 0.00 |
| 3 | 06/06 | 22:00 | 75 | 57 | 54 | 29.58 | S | 6 | 0.00 |
| 4 | 06/06 | 21:00 | 76 | 56 | 52 | 29.58 | S | 4 | 0.00 |
| 5 | 06/06 | 20:00 | 79 | 58 | 49 | 29.57 | S | 3 | 0.00 |
| 6 | 06/06 | 19:00 | 81 | 58 | 46 | 29.58 | S | 4 | 0.00 |
| 7 | 06/06 | 18:00 | 81 | 56 | 44 | 29.58 | SSW | 0 | 0.00 |
| 8 | 06/06 | 17:00 | 82 | 58 | 45 | 29.59 | SW | 3 | 0.00 |
| 9 | 06/06 | 16:00 | 83 | 59 | 45 | 29.61 | NNE | 4 | 0.00 |
| 10 | 06/06 | 15:00 | 83 | 60 | 47 | 29.63 | SSW | 0 | 0.00 |
| 11 | 06/06 | 14:00 | 82 | 59 | 47 | 29.64 | SSW | 4 | 0.00 |
| 12 | 06/06 | 13:00 | 81 | 57 | 45 | 29.65 | SW | 1 | 0.00 |
| 13 | 06/06 | 12:00 | 79 | 58 | 49 | 29.65 | SW | 4 | 0.00 |
| 14 | 06/06 | 11:00 | 77 | 59 | 56 | 29.66 | SW | 0 | 0.00 |
| 15 | 06/06 | 10:00 | 75 | 59 | 58 | 29.66 | SSW | 6 | 0.00 |
| 16 | 06/06 | 09:00 | 73 | 61 | 68 | 29.66 | SSW | 3 | 0.00 |
| 17 | 06/06 | 08:00 | 69 | 62 | 80 | 29.66 | SW | 5 | 0.00 |
| 18 | 06/06 | 07:00 | 65 | 60 | 84 | 29.65 | S | 0 | 0.00 |
| 19 | 06/06 | 06:00 | 65 | 59 | 82 | 29.65 | SSW | 0 | 0.00 |
| 20 | 06/06 | 05:00 | 65 | 59 | 81 | 29.63 | WSW | 5 | 0.00 |
| 21 | 06/06 | 04:00 | 66 | 58 | 76 | 29.63 | SW | 3 | 0.00 |
| 22 | 06/06 | 03:00 | 65 | 57 | 77 | 29.62 | SW | 0 | 0.00 |
| 23 | 06/06 | 02:00 | 66 | 58 | 77 | 29.61 | WSW | 0 | 0.00 |
| 24 | 06/06 | 01:00 | 66 | 58 | 77 | 29.62 | S | 0 | 0.00 |